createdAt,value
2023-03-12T00:02:12.789Z,2.23
2023-03-12T00:04:39.572Z,2.06
2023-03-12T00:07:07.650Z,2.56
2023-03-12T00:09:39.407Z,2.65
2023-03-12T00:12:06.897Z,2.32
2023-03-12T00:14:33.816Z,2.20
2023-03-12T00:17:00.595Z,2.25
2023-03-12T00:19:27.495Z,2.36
2023-03-12T00:21:54.151Z,2.40
2023-03-12T00:24:20.945Z,2.65
2023-03-12T00:26:47.925Z,2.47
2023-03-12T00:29:14.901Z,2.57
2023-03-12T00:31:41.786Z,2.05
2023-03-12T00:34:10.550Z,2.27
2023-03-12T00:36:37.323Z,2.51
2023-03-12T00:39:04.313Z,2.44
2023-03-12T00:41:31.280Z,2.45
2023-03-12T00:43:58.149Z,2.20
2023-03-12T00:46:25.116Z,2.45
2023-03-12T00:48:52.007Z,2.35
2023-03-12T00:51:19.145Z,2.68
2023-03-12T00:53:46.182Z,2.23
2023-03-12T00:56:13.042Z,2.08
2023-03-12T00:58:39.842Z,2.07
2023-03-12T01:01:06.634Z,2.15
2023-03-12T01:03:33.718Z,2.24
2023-03-12T01:06:00.720Z,2.18
2023-03-12T01:08:27.442Z,2.15
2023-03-12T01:10:54.190Z,2.00
2023-03-12T01:13:21.157Z,2.40
2023-03-12T01:15:47.893Z,2.64
2023-03-12T01:18:14.636Z,2.20
2023-03-12T01:20:41.976Z,2.31
2023-03-12T01:23:09.451Z,2.62
2023-03-12T01:25:37.097Z,2.59
2023-03-12T01:28:04.599Z,2.69
2023-03-12T01:30:31.674Z,2.58
2023-03-12T01:32:58.706Z,2.92
2023-03-12T01:35:25.589Z,2.76
2023-03-12T01:37:53.169Z,2.25
2023-03-12T01:40:25.492Z,2.53
2023-03-12T01:42:57.015Z,2.87
2023-03-12T01:46:01.283Z,2.72
2023-03-12T01:48:32.192Z,2.70
2023-03-12T01:51:00.576Z,2.60
2023-03-12T01:53:28.514Z,2.11
2023-03-12T01:55:55.716Z,2.28
2023-03-12T01:58:22.785Z,2.51
2023-03-12T02:00:49.522Z,2.92
2023-03-12T02:03:16.737Z,2.51
2023-03-12T02:05:54.956Z,2.60
2023-03-12T02:08:24.578Z,2.20
2023-03-12T02:10:51.338Z,2.47
2023-03-12T02:13:19.020Z,2.89
2023-03-12T02:15:46.224Z,2.95
2023-03-12T02:18:16.713Z,2.91
2023-03-12T02:20:52.434Z,3.13
2023-03-12T02:23:27.906Z,2.98
2023-03-12T02:25:56.661Z,2.93
2023-03-12T02:28:26.817Z,2.93
2023-03-12T02:30:58.754Z,3.05
2023-03-12T02:33:26.171Z,2.54
2023-03-12T02:35:53.225Z,2.60
2023-03-12T02:38:44.596Z,3.04
2023-03-12T02:41:20.085Z,3.03
2023-03-12T02:43:51.978Z,2.61
2023-03-12T02:46:18.795Z,2.56
2023-03-12T02:48:45.556Z,2.73
2023-03-12T02:51:12.300Z,3.08
2023-03-12T02:53:39.078Z,3.14
2023-03-12T02:56:07.106Z,3.00
2023-03-12T02:58:33.869Z,3.13
2023-03-12T03:01:00.787Z,2.96
2023-03-12T03:03:27.563Z,3.38
2023-03-12T03:05:54.412Z,3.07
2023-03-12T03:08:21.139Z,3.12
2023-03-12T03:10:47.786Z,2.90
2023-03-12T03:13:14.465Z,2.92
2023-03-12T03:15:41.261Z,3.10
2023-03-12T03:18:08.017Z,3.19
2023-03-12T03:20:34.900Z,2.99
2023-03-12T03:23:01.689Z,3.14
2023-03-12T03:25:28.813Z,3.06
2023-03-12T03:27:56.060Z,3.01
2023-03-12T03:30:22.915Z,3.23
2023-03-12T03:32:50.218Z,3.37
2023-03-12T03:35:17.667Z,3.30
2023-03-12T03:37:44.545Z,3.26
2023-03-12T03:40:12.480Z,3.23
2023-03-12T03:42:40.237Z,3.24
2023-03-12T03:45:07.743Z,3.08
2023-03-12T03:47:34.453Z,3.10
2023-03-12T03:50:01.182Z,3.05
2023-03-12T03:52:28.024Z,3.32
2023-03-12T03:54:54.848Z,3.01
2023-03-12T03:57:21.579Z,3.18
2023-03-12T03:59:48.248Z,3.59
2023-03-12T04:02:14.954Z,3.23
2023-03-12T04:04:41.721Z,3.30
2023-03-12T04:07:08.463Z,3.40
2023-03-12T04:09:35.161Z,3.48
2023-03-12T04:12:01.914Z,3.56
2023-03-12T04:14:28.670Z,3.31
2023-03-12T04:16:55.354Z,3.19
2023-03-12T04:19:22.081Z,3.42
2023-03-12T04:21:48.794Z,3.04
2023-03-12T04:24:17.173Z,3.50
2023-03-12T04:26:43.972Z,3.17
2023-03-12T04:29:10.666Z,2.93
2023-03-12T04:31:37.432Z,3.08
2023-03-12T04:34:04.369Z,2.88
2023-03-12T04:36:31.125Z,3.05
2023-03-12T04:38:57.792Z,3.26
2023-03-12T04:41:24.622Z,3.07
2023-03-12T04:43:51.357Z,3.34
2023-03-12T04:46:18.247Z,2.95
2023-03-12T04:48:45.070Z,3.18
2023-03-12T04:51:11.733Z,3.02
2023-03-12T04:53:40.634Z,3.20
2023-03-12T04:56:07.856Z,3.11
2023-03-12T04:58:35.944Z,3.06
2023-03-12T05:01:02.774Z,2.88
2023-03-12T05:03:29.632Z,2.92
2023-03-12T05:05:56.366Z,2.91
2023-03-12T05:08:23.142Z,3.02
2023-03-12T05:10:50.150Z,3.18
2023-03-12T05:13:22.791Z,3.31
2023-03-12T05:15:50.956Z,2.98
2023-03-12T05:18:17.996Z,2.99
2023-03-12T05:20:44.777Z,2.98
2023-03-12T05:23:11.545Z,2.85
2023-03-12T05:25:41.690Z,2.53
2023-03-12T05:28:08.490Z,2.38
2023-03-12T05:30:35.278Z,2.85
2023-03-12T05:33:02.015Z,2.59
2023-03-12T05:35:28.741Z,2.55
2023-03-12T05:37:55.479Z,2.69
2023-03-12T05:40:22.138Z,2.36
2023-03-12T05:42:48.861Z,2.58
2023-03-12T05:45:15.690Z,2.39
2023-03-12T05:47:42.373Z,2.29
2023-03-12T05:50:11.398Z,2.42
2023-03-12T05:52:38.158Z,2.45
2023-03-12T05:55:05.446Z,2.37
2023-03-12T05:57:32.161Z,2.63
2023-03-12T05:59:58.894Z,2.39
2023-03-12T06:02:25.586Z,2.36
2023-03-12T06:04:52.328Z,2.17
2023-03-12T06:07:19.068Z,2.54
2023-03-12T06:09:45.730Z,2.07
2023-03-12T06:12:12.380Z,2.03
2023-03-12T06:14:39.333Z,2.34
2023-03-12T06:17:06.118Z,2.49
2023-03-12T06:19:32.860Z,2.51
2023-03-12T06:21:59.607Z,2.50
2023-03-12T06:24:26.310Z,2.83
2023-03-12T06:26:53.020Z,2.65
2023-03-12T06:29:19.773Z,2.49
2023-03-12T06:31:48.361Z,2.49
2023-03-12T06:34:16.897Z,2.49
2023-03-12T06:36:43.888Z,2.90
2023-03-12T06:39:10.608Z,2.47
2023-03-12T06:41:37.418Z,3.01
2023-03-12T06:44:06.559Z,2.35
2023-03-12T06:46:33.591Z,2.47
2023-03-12T06:49:00.335Z,2.59
2023-03-12T06:51:27.006Z,2.81
2023-03-12T06:53:53.765Z,2.72
2023-03-12T06:56:20.565Z,2.96
2023-03-12T06:58:47.220Z,2.77
2023-03-12T07:01:14.032Z,2.65
2023-03-12T07:03:40.802Z,2.49
2023-03-12T07:06:14.571Z,3.14
2023-03-12T07:08:41.374Z,2.79
2023-03-12T07:11:08.136Z,2.82
2023-03-12T07:13:35.355Z,2.60
2023-03-12T07:16:03.118Z,2.71
2023-03-12T07:18:29.949Z,3.11
2023-03-12T07:20:56.623Z,2.78
2023-03-12T07:23:23.620Z,2.63
2023-03-12T07:25:50.701Z,2.86
2023-03-12T07:28:18.170Z,3.22
2023-03-12T07:30:50.529Z,3.16
2023-03-12T07:33:21.961Z,3.15
2023-03-12T07:35:51.532Z,3.10
2023-03-12T07:38:18.969Z,3.04
2023-03-12T07:40:50.265Z,2.91
2023-03-12T07:43:19.078Z,2.83
2023-03-12T07:45:47.063Z,2.93
2023-03-12T07:48:14.229Z,2.86
2023-03-12T07:50:41.957Z,3.49
2023-03-12T07:53:08.870Z,3.52
2023-03-12T07:55:35.734Z,3.32
2023-03-12T07:58:02.934Z,3.34
2023-03-12T08:00:30.911Z,3.60
2023-03-12T08:02:58.125Z,3.44
2023-03-12T08:05:25.395Z,3.60
2023-03-12T08:07:53.000Z,3.67
2023-03-12T08:10:21.254Z,3.67
2023-03-12T08:12:49.105Z,3.60
2023-03-12T08:15:16.445Z,3.80
2023-03-12T08:17:43.290Z,3.57
2023-03-12T08:20:10.964Z,3.63
2023-03-12T08:22:38.720Z,3.42
2023-03-12T08:25:06.619Z,3.90
2023-03-12T08:27:34.071Z,3.92
2023-03-12T08:30:00.810Z,3.98
2023-03-12T08:32:27.726Z,3.86
2023-03-12T08:34:54.594Z,4.18
2023-03-12T08:37:21.407Z,3.85
2023-03-12T08:39:48.110Z,3.71
2023-03-12T08:42:14.784Z,3.83
2023-03-12T08:44:41.543Z,3.66
2023-03-12T08:47:08.242Z,4.21
2023-03-12T08:49:34.918Z,3.96
2023-03-12T08:52:01.984Z,4.18
2023-03-12T08:54:28.742Z,3.99
2023-03-12T08:56:55.476Z,4.16
2023-03-12T08:59:23.593Z,4.36
2023-03-12T09:01:50.531Z,4.19
2023-03-12T09:04:17.358Z,4.42
2023-03-12T09:06:44.193Z,4.15
2023-03-12T09:09:10.924Z,4.41
2023-03-12T09:11:39.809Z,4.43
2023-03-12T09:16:53.854Z,4.64
2023-03-12T09:19:21.254Z,4.53
2023-03-12T09:21:48.008Z,4.42
2023-03-12T09:24:14.966Z,4.71
2023-03-12T09:26:41.685Z,4.50
2023-03-12T09:29:08.490Z,4.22
2023-03-12T09:31:36.569Z,4.78
2023-03-12T09:34:04.491Z,4.84
2023-03-12T09:36:31.234Z,4.98
2023-03-12T09:38:57.936Z,4.73
2023-03-12T09:41:28.999Z,5.05
2023-03-12T09:44:09.391Z,5.17
2023-03-12T09:46:46.414Z,5.48
2023-03-12T09:49:44.875Z,5.47
2023-03-12T09:52:56.106Z,5.32
2023-03-12T09:55:24.406Z,5.12
2023-03-12T09:57:52.120Z,5.56
2023-03-12T10:00:23.015Z,5.65
2023-03-12T10:03:16.776Z,5.32
2023-03-12T10:05:46.723Z,5.53
2023-03-12T10:08:24.738Z,5.65
2023-03-12T10:11:22.435Z,5.82
2023-03-12T10:13:48.933Z,5.57
2023-03-12T10:16:42.074Z,5.35
2023-03-12T10:19:15.118Z,6.07
2023-03-12T10:22:08.495Z,6.18
2023-03-12T10:24:56.514Z,6.38
2023-03-12T10:27:27.833Z,6.36
2023-03-12T10:29:56.808Z,6.22
2023-03-12T10:32:41.506Z,6.39
2023-03-12T10:35:21.983Z,6.57
2023-03-12T10:37:54.292Z,6.85
2023-03-12T10:40:27.160Z,6.72
2023-03-12T10:42:54.165Z,6.69
2023-03-12T10:45:32.521Z,6.50
2023-03-12T10:48:08.863Z,6.86
2023-03-12T10:50:38.119Z,6.99
2023-03-12T10:53:20.433Z,7.15
2023-03-12T10:56:10.323Z,6.60
2023-03-12T10:58:38.396Z,6.95
2023-03-12T11:01:16.253Z,7.11
2023-03-12T11:03:44.067Z,7.18
2023-03-12T11:06:24.774Z,7.36
2023-03-12T11:09:16.610Z,7.64
2023-03-12T11:11:47.576Z,7.39
2023-03-12T11:14:21.799Z,7.27
2023-03-12T11:16:50.015Z,8.02
2023-03-12T11:19:35.409Z,7.84
2023-03-12T11:22:05.188Z,8.07
2023-03-12T11:24:31.985Z,8.30
2023-03-12T11:27:10.901Z,8.69
2023-03-12T11:29:47.185Z,8.54
2023-03-12T11:32:30.187Z,8.04
2023-03-12T11:34:57.508Z,8.36
2023-03-12T11:37:52.057Z,8.30
2023-03-12T11:40:33.062Z,8.68
2023-03-12T11:43:40.225Z,8.80
2023-03-12T11:47:07.164Z,8.77
2023-03-12T11:50:00.091Z,9.02
2023-03-12T11:52:41.489Z,8.98
2023-03-12T11:55:31.864Z,9.07
2023-03-12T11:58:01.477Z,9.05
2023-03-12T12:00:49.476Z,9.08
2023-03-12T12:03:53.763Z,9.39
2023-03-12T12:06:23.531Z,9.83
2023-03-12T12:09:17.504Z,9.69
2023-03-12T12:12:16.520Z,9.96
2023-03-12T12:14:49.125Z,9.99
2023-03-12T12:17:54.499Z,9.86
2023-03-12T12:21:00.300Z,9.74
2023-03-12T12:23:43.565Z,9.78
2023-03-12T12:26:13.148Z,9.69
2023-03-12T12:28:39.759Z,10.02
2023-03-12T12:31:24.270Z,9.68
2023-03-12T12:34:09.575Z,9.94
2023-03-12T12:36:36.908Z,9.86
2023-03-12T12:39:19.922Z,8.98
2023-03-12T12:41:53.319Z,9.61
2023-03-12T12:44:49.978Z,9.28
2023-03-12T12:47:22.744Z,9.68
2023-03-12T12:49:57.701Z,9.86
2023-03-12T12:52:26.210Z,10.01
2023-03-12T12:55:14.474Z,9.55
2023-03-12T12:58:02.270Z,9.13
2023-03-12T13:00:40.997Z,9.65
2023-03-12T13:03:14.382Z,9.10
2023-03-12T13:05:47.342Z,9.20
2023-03-12T13:08:56.705Z,9.50
2023-03-12T13:11:24.821Z,9.46
2023-03-12T13:14:11.460Z,9.59
2023-03-12T13:16:49.200Z,9.56
2023-03-12T13:19:18.624Z,9.85
2023-03-12T13:22:05.203Z,9.39
2023-03-12T13:24:51.910Z,9.39
2023-03-12T13:27:25.801Z,9.54
2023-03-12T13:29:57.354Z,9.32
2023-03-12T13:32:36.324Z,9.77
2023-03-12T13:35:18.481Z,9.74
2023-03-12T13:37:54.163Z,9.57
2023-03-12T13:40:30.113Z,9.64
2023-03-12T13:43:09.881Z,9.58
2023-03-12T13:45:59.882Z,10.06
2023-03-12T13:48:27.536Z,10.03
2023-03-12T13:50:59.888Z,9.75
2023-03-12T13:53:33.758Z,10.30
2023-03-12T13:56:09.734Z,10.33
2023-03-12T13:59:04.561Z,10.48
2023-03-12T14:01:43.533Z,10.54
2023-03-12T14:04:33.150Z,10.47
2023-03-12T14:07:09.914Z,10.60
2023-03-12T14:10:07.020Z,10.52
2023-03-12T14:12:57.343Z,10.12
2023-03-12T14:15:44.844Z,10.24
2023-03-12T14:18:20.871Z,10.40
2023-03-12T14:20:55.283Z,10.51
2023-03-12T14:23:25.144Z,10.61
2023-03-12T14:25:57.006Z,10.46
2023-03-12T14:28:24.570Z,10.76
2023-03-12T14:31:03.509Z,10.64
2023-03-12T14:33:36.491Z,10.95
2023-03-12T14:36:16.997Z,10.77
2023-03-12T14:38:45.986Z,10.77
2023-03-12T14:41:29.418Z,11.23
2023-03-12T14:44:05.041Z,11.28
2023-03-12T14:46:31.786Z,10.87
2023-03-12T14:48:58.523Z,10.68
2023-03-12T14:51:29.200Z,10.77
2023-03-12T14:53:57.152Z,10.61
2023-03-12T14:56:24.743Z,11.09
2023-03-12T14:58:52.052Z,10.83
2023-03-12T15:01:22.146Z,11.04
2023-03-12T15:03:52.824Z,10.90
2023-03-12T15:06:30.121Z,10.85
2023-03-12T15:08:57.623Z,11.01
2023-03-12T15:11:27.798Z,10.93
2023-03-12T15:13:56.298Z,10.95
2023-03-12T15:16:24.143Z,11.15
2023-03-12T15:18:51.465Z,10.71
2023-03-12T15:21:18.383Z,10.75
2023-03-12T15:23:47.539Z,10.68
2023-03-12T15:26:20.247Z,11.03
2023-03-12T15:29:02.129Z,10.83
2023-03-12T15:31:48.413Z,11.14
2023-03-12T15:34:34.185Z,10.82
2023-03-12T15:37:03.172Z,11.06
2023-03-12T15:39:40.814Z,11.19
2023-03-12T15:42:10.337Z,11.07
2023-03-12T15:44:52.043Z,11.09
2023-03-12T15:47:22.197Z,11.05
2023-03-12T15:49:56.644Z,11.45
2023-03-12T15:52:24.904Z,11.48
2023-03-12T15:55:12.797Z,11.41
2023-03-12T15:57:54.152Z,10.39
2023-03-12T16:00:43.068Z,10.24
2023-03-12T16:03:21.473Z,9.69
2023-03-12T16:05:51.268Z,8.98
2023-03-12T16:08:38.284Z,8.92
2023-03-12T16:11:10.908Z,8.62
2023-03-12T16:13:37.726Z,8.26
2023-03-12T16:16:04.717Z,8.28
2023-03-12T16:18:31.600Z,8.01
2023-03-12T16:20:58.271Z,7.90
2023-03-12T16:23:24.968Z,8.07
2023-03-12T16:25:54.495Z,8.51
2023-03-12T16:28:22.535Z,8.17
2023-03-12T16:30:50.312Z,7.88
2023-03-12T16:33:20.627Z,8.54
2023-03-12T16:35:48.129Z,8.13
2023-03-12T16:38:15.102Z,8.02
2023-03-12T16:40:48.665Z,8.14
2023-03-12T16:43:19.848Z,8.41
2023-03-12T16:45:50.300Z,8.19
2023-03-12T16:48:22.229Z,8.14
2023-03-12T16:50:51.393Z,7.66
2023-03-12T16:53:19.470Z,8.08
2023-03-12T16:55:51.111Z,8.23
2023-03-12T16:58:21.004Z,7.79
2023-03-12T17:00:48.790Z,7.96
2023-03-12T17:03:34.363Z,8.29
2023-03-12T17:06:02.393Z,7.84
2023-03-12T17:08:29.438Z,8.08
2023-03-12T17:10:57.444Z,7.78
2023-03-12T17:13:27.021Z,7.39
2023-03-12T17:15:54.481Z,8.00
2023-03-12T17:18:21.968Z,7.62
2023-03-12T17:20:52.001Z,7.87
2023-03-12T17:23:26.624Z,7.30
2023-03-12T17:25:53.494Z,7.61
2023-03-12T17:28:20.362Z,7.57
2023-03-12T17:30:47.615Z,7.67
2023-03-12T17:33:16.713Z,7.44
2023-03-12T17:35:43.728Z,7.70
2023-03-12T17:38:11.604Z,7.77
2023-03-12T17:40:43.208Z,8.00
2023-03-12T17:43:10.758Z,7.91
2023-03-12T17:45:37.607Z,7.84
2023-03-12T17:48:04.971Z,7.91
2023-03-12T17:50:31.941Z,7.66
2023-03-12T17:52:58.780Z,7.65
2023-03-12T17:55:25.845Z,7.98
2023-03-12T17:57:52.578Z,7.39
2023-03-12T18:00:22.056Z,7.36
2023-03-12T18:02:49.356Z,7.72
2023-03-12T18:05:16.482Z,7.62
2023-03-12T18:07:43.374Z,7.07
2023-03-12T18:10:11.239Z,6.97
2023-03-12T18:12:39.167Z,7.21
2023-03-12T18:15:15.399Z,7.45
2023-03-12T18:17:46.155Z,7.03
2023-03-12T18:20:17.899Z,7.08
2023-03-12T18:22:48.053Z,7.11
2023-03-12T18:25:15.035Z,6.92
2023-03-12T18:27:41.730Z,7.11
2023-03-12T18:30:11.677Z,6.89
2023-03-12T18:32:39.127Z,7.30
2023-03-12T18:35:07.618Z,7.02
2023-03-12T18:37:34.661Z,7.09
2023-03-12T18:40:01.431Z,7.10
2023-03-12T18:42:28.158Z,7.10
2023-03-12T18:44:54.912Z,6.75
2023-03-12T18:47:21.600Z,6.82
2023-03-12T18:49:48.476Z,7.14
2023-03-12T18:52:15.183Z,7.15
2023-03-12T18:54:41.918Z,6.98
2023-03-12T18:57:08.698Z,6.98
2023-03-12T18:59:35.424Z,6.95
2023-03-12T19:02:02.151Z,6.93
2023-03-12T19:04:29.008Z,6.90
2023-03-12T19:06:55.816Z,6.88
2023-03-12T19:09:22.618Z,6.87
2023-03-12T19:11:49.942Z,6.74
2023-03-12T19:14:16.759Z,6.73
2023-03-12T19:16:43.631Z,6.89
2023-03-12T19:19:10.369Z,6.82
2023-03-12T19:21:37.094Z,6.70
2023-03-12T19:24:04.174Z,6.99
2023-03-12T19:26:30.902Z,6.93
2023-03-12T19:28:57.664Z,6.89
2023-03-12T19:31:25.457Z,6.90
2023-03-12T19:33:52.502Z,7.01
2023-03-12T19:36:19.337Z,6.86
2023-03-12T19:38:46.196Z,6.73
2023-03-12T19:41:13.008Z,6.86
2023-03-12T19:43:40.913Z,6.84
2023-03-12T19:46:08.034Z,7.01
2023-03-12T19:48:34.760Z,7.04
2023-03-12T19:51:09.043Z,6.87
2023-03-12T19:53:36.270Z,6.99
2023-03-12T19:56:03.098Z,6.71
2023-03-12T19:58:29.936Z,6.59
2023-03-12T20:01:01.268Z,6.57
2023-03-12T20:03:29.095Z,6.60
2023-03-12T20:05:56.901Z,6.74
2023-03-12T20:08:27.931Z,6.72
2023-03-12T20:11:02.299Z,6.72
2023-03-12T20:13:29.078Z,6.63
2023-03-12T20:15:55.781Z,6.89
2023-03-12T20:18:22.534Z,6.57
2023-03-12T20:20:49.240Z,6.49
2023-03-12T20:23:15.914Z,6.71
2023-03-12T20:25:42.655Z,6.58
2023-03-12T20:28:10.927Z,6.72
2023-03-12T20:30:40.709Z,6.16
2023-03-12T20:33:08.539Z,6.49
2023-03-12T20:35:36.426Z,6.74
2023-03-12T20:38:03.821Z,6.83
2023-03-12T20:40:30.738Z,6.57
2023-03-12T20:42:57.455Z,6.46
2023-03-12T20:45:24.305Z,6.75
2023-03-12T20:47:51.166Z,6.87
2023-03-12T20:50:17.950Z,6.65
2023-03-12T20:52:45.119Z,6.58
2023-03-12T20:55:11.905Z,6.68
2023-03-12T20:57:38.623Z,6.76
2023-03-12T21:00:05.868Z,6.74
2023-03-12T21:02:32.688Z,6.45
2023-03-12T21:04:59.440Z,6.45
2023-03-12T21:07:26.188Z,6.91
2023-03-12T21:09:52.876Z,6.78
2023-03-12T21:12:19.591Z,6.74
2023-03-12T21:14:46.267Z,6.61
2023-03-12T21:17:13.975Z,6.72
2023-03-12T21:19:41.843Z,7.00
2023-03-12T21:22:09.327Z,6.83
2023-03-12T21:24:36.931Z,7.03
2023-03-12T21:27:03.758Z,6.95
2023-03-12T21:29:30.428Z,6.98
2023-03-12T21:31:57.586Z,6.80
2023-03-12T21:34:24.466Z,7.03
2023-03-12T21:36:51.125Z,7.02
2023-03-12T21:39:18.110Z,6.90
2023-03-12T21:41:45.218Z,6.84
2023-03-12T21:44:13.003Z,6.92
2023-03-12T21:46:41.071Z,6.87
2023-03-12T21:49:07.846Z,6.89
2023-03-12T21:51:34.535Z,6.70
2023-03-12T21:54:01.296Z,6.91
2023-03-12T21:56:29.367Z,6.71
2023-03-12T21:58:57.397Z,6.92
2023-03-12T22:01:24.878Z,6.95
2023-03-12T22:03:51.885Z,6.86
2023-03-12T22:06:18.962Z,6.86
2023-03-12T22:08:50.004Z,6.77
2023-03-12T22:11:16.914Z,6.78
2023-03-12T22:13:44.051Z,6.85
2023-03-12T22:16:12.553Z,6.87
2023-03-12T22:18:41.791Z,6.61
2023-03-12T22:21:13.191Z,6.85
2023-03-12T22:23:40.008Z,6.60
2023-03-12T22:26:07.368Z,6.84
2023-03-12T22:28:34.799Z,6.64
2023-03-12T22:31:04.427Z,6.83
2023-03-12T22:33:31.409Z,6.68
2023-03-12T22:35:58.874Z,6.49
2023-03-12T22:38:25.966Z,6.82
2023-03-12T22:40:55.387Z,6.53
2023-03-12T22:43:22.427Z,6.42
2023-03-12T22:45:53.873Z,6.78
2023-03-12T22:48:20.591Z,6.40
2023-03-12T22:50:56.388Z,6.39
2023-03-12T22:53:23.426Z,6.68
2023-03-12T22:55:57.719Z,6.84
2023-03-12T22:58:24.676Z,6.61
2023-03-12T23:00:57.447Z,6.91
2023-03-12T23:03:24.138Z,6.83
2023-03-12T23:05:50.767Z,6.54
2023-03-12T23:08:17.425Z,6.77
2023-03-12T23:10:51.452Z,6.86
2023-03-12T23:13:18.145Z,6.63
2023-03-12T23:15:44.799Z,6.72
2023-03-12T23:18:11.481Z,6.84
2023-03-12T23:20:38.115Z,6.57
2023-03-12T23:23:04.841Z,6.64
2023-03-12T23:25:31.529Z,6.56
2023-03-12T23:27:58.180Z,6.69
2023-03-12T23:30:24.837Z,6.87
2023-03-12T23:32:51.630Z,6.72
2023-03-12T23:35:18.478Z,6.87
2023-03-12T23:37:48.593Z,6.97
2023-03-12T23:40:17.169Z,7.03
2023-03-12T23:42:44.481Z,7.08
2023-03-12T23:45:12.484Z,6.97
2023-03-12T23:47:39.192Z,7.02
2023-03-12T23:50:06.560Z,7.03
2023-03-12T23:52:33.227Z,6.62
2023-03-12T23:54:59.900Z,6.93
2023-03-12T23:57:26.959Z,7.09
2023-03-12T23:59:53.623Z,6.88
